sensor_id;sensor_type;location;lat;lon;timestamp;P1;durP1;ratioP1;P2;durP2;ratioP2
75272;SDS011;63869;52.344;16.928;2022-10-12T00:01:44;38.40;;;17.23;;
75272;SDS011;63869;52.344;16.928;2022-10-12T00:04:09;34.88;;;16.58;;
75272;SDS011;63869;52.344;16.928;2022-10-12T00:06:34;37.88;;;16.30;;
75272;SDS011;63869;52.344;16.928;2022-10-12T00:09:00;36.75;;;16.38;;
75272;SDS011;63869;52.344;16.928;2022-10-12T00:11:26;38.20;;;17.02;;
75272;SDS011;63869;52.344;16.928;2022-10-12T00:13:54;33.67;;;16.05;;
75272;SDS011;63869;52.344;16.928;2022-10-12T00:16:20;42.92;;;18.40;;
75272;SDS011;63869;52.344;16.928;2022-10-12T00:18:51;43.65;;;17.17;;
75272;SDS011;63869;52.344;16.928;2022-10-12T00:21:17;35.72;;;16.15;;
75272;SDS011;63869;52.344;16.928;2022-10-12T00:23:44;37.17;;;16.10;;
75272;SDS011;63869;52.344;16.928;2022-10-12T00:26:11;35.03;;;15.98;;
75272;SDS011;63869;52.344;16.928;2022-10-12T00:28:40;30.40;;;16.25;;
75272;SDS011;63869;52.344;16.928;2022-10-12T00:31:07;56.72;;;19.02;;
75272;SDS011;63869;52.344;16.928;2022-10-12T00:33:34;38.35;;;16.90;;
75272;SDS011;63869;52.344;16.928;2022-10-12T00:36:19;37.60;;;16.85;;
75272;SDS011;63869;52.344;16.928;2022-10-12T00:38:49;36.60;;;17.20;;
75272;SDS011;63869;52.344;16.928;2022-10-12T00:41:16;39.35;;;17.02;;
75272;SDS011;63869;52.344;16.928;2022-10-12T00:43:44;38.22;;;17.25;;
75272;SDS011;63869;52.344;16.928;2022-10-12T00:48:49;43.38;;;17.33;;
75272;SDS011;63869;52.344;16.928;2022-10-12T00:51:22;37.10;;;16.45;;
75272;SDS011;63869;52.344;16.928;2022-10-12T00:53:49;40.40;;;16.50;;
75272;SDS011;63869;52.344;16.928;2022-10-12T00:56:23;33.08;;;15.77;;
75272;SDS011;63869;52.344;16.928;2022-10-12T00:58:51;33.70;;;15.63;;
75272;SDS011;63869;52.344;16.928;2022-10-12T01:01:18;41.53;;;15.80;;
75272;SDS011;63869;52.344;16.928;2022-10-12T01:03:45;36.72;;;15.85;;
75272;SDS011;63869;52.344;16.928;2022-10-12T01:06:11;34.97;;;15.27;;
75272;SDS011;63869;52.344;16.928;2022-10-12T01:08:37;31.35;;;15.13;;
75272;SDS011;63869;52.344;16.928;2022-10-12T01:11:03;33.90;;;15.82;;
75272;SDS011;63869;52.344;16.928;2022-10-12T01:13:29;32.00;;;15.75;;
75272;SDS011;63869;52.344;16.928;2022-10-12T01:16:01;38.38;;;15.60;;
75272;SDS011;63869;52.344;16.928;2022-10-12T01:18:36;33.22;;;15.23;;
75272;SDS011;63869;52.344;16.928;2022-10-12T01:21:16;31.30;;;14.88;;
75272;SDS011;63869;52.344;16.928;2022-10-12T01:32:30;32.30;;;13.35;;
75272;SDS011;63869;52.344;16.928;2022-10-12T01:35:06;34.67;;;14.32;;
75272;SDS011;63869;52.344;16.928;2022-10-12T01:37:42;30.83;;;14.80;;
75272;SDS011;63869;52.344;16.928;2022-10-12T01:40:19;32.50;;;13.75;;
75272;SDS011;63869;52.344;16.928;2022-10-12T01:42:50;29.80;;;14.45;;
75272;SDS011;63869;52.344;16.928;2022-10-12T01:45:18;27.77;;;14.15;;
75272;SDS011;63869;52.344;16.928;2022-10-12T01:47:45;28.65;;;13.98;;
75272;SDS011;63869;52.344;16.928;2022-10-12T01:50:14;33.30;;;14.45;;
75272;SDS011;63869;52.344;16.928;2022-10-12T01:52:44;34.10;;;13.93;;
75272;SDS011;63869;52.344;16.928;2022-10-12T02:01:28;30.13;;;13.40;;
75272;SDS011;63869;52.344;16.928;2022-10-12T02:03:59;36.25;;;14.65;;
75272;SDS011;63869;52.344;16.928;2022-10-12T02:06:33;30.88;;;14.70;;
75272;SDS011;63869;52.344;16.928;2022-10-12T02:09:32;31.02;;;14.30;;
75272;SDS011;63869;52.344;16.928;2022-10-12T02:12:03;33.33;;;14.32;;
75272;SDS011;63869;52.344;16.928;2022-10-12T02:14:37;30.42;;;14.45;;
75272;SDS011;63869;52.344;16.928;2022-10-12T02:17:07;34.75;;;14.45;;
75272;SDS011;63869;52.344;16.928;2022-10-12T02:19:36;39.17;;;15.38;;
75272;SDS011;63869;52.344;16.928;2022-10-12T02:22:05;31.38;;;14.25;;
75272;SDS011;63869;52.344;16.928;2022-10-12T02:24:32;35.50;;;15.65;;
75272;SDS011;63869;52.344;16.928;2022-10-12T02:27:00;33.45;;;14.43;;
75272;SDS011;63869;52.344;16.928;2022-10-12T02:29:27;37.22;;;16.85;;
75272;SDS011;63869;52.344;16.928;2022-10-12T02:32:27;45.03;;;14.27;;
75272;SDS011;63869;52.344;16.928;2022-10-12T02:38:09;32.53;;;14.23;;
75272;SDS011;63869;52.344;16.928;2022-10-12T02:40:56;26.52;;;13.02;;
75272;SDS011;63869;52.344;16.928;2022-10-12T02:43:35;34.25;;;15.02;;
75272;SDS011;63869;52.344;16.928;2022-10-12T02:46:06;28.95;;;13.77;;
75272;SDS011;63869;52.344;16.928;2022-10-12T02:48:34;27.85;;;13.02;;
75272;SDS011;63869;52.344;16.928;2022-10-12T02:51:02;32.70;;;13.98;;
75272;SDS011;63869;52.344;16.928;2022-10-12T02:53:27;32.20;;;13.82;;
75272;SDS011;63869;52.344;16.928;2022-10-12T02:55:58;28.05;;;13.90;;
75272;SDS011;63869;52.344;16.928;2022-10-12T02:58:25;28.20;;;13.50;;
75272;SDS011;63869;52.344;16.928;2022-10-12T03:00:51;31.27;;;14.45;;
75272;SDS011;63869;52.344;16.928;2022-10-12T03:03:16;30.27;;;14.88;;
75272;SDS011;63869;52.344;16.928;2022-10-12T03:05:41;32.15;;;13.27;;
75272;SDS011;63869;52.344;16.928;2022-10-12T03:08:07;29.90;;;13.23;;
75272;SDS011;63869;52.344;16.928;2022-10-12T03:10:32;27.10;;;13.65;;
75272;SDS011;63869;52.344;16.928;2022-10-12T03:12:58;25.40;;;13.30;;
75272;SDS011;63869;52.344;16.928;2022-10-12T03:15:23;38.05;;;14.48;;
75272;SDS011;63869;52.344;16.928;2022-10-12T03:17:48;32.55;;;13.85;;
75272;SDS011;63869;52.344;16.928;2022-10-12T03:20:14;31.20;;;13.15;;
75272;SDS011;63869;52.344;16.928;2022-10-12T03:22:40;28.27;;;13.32;;
75272;SDS011;63869;52.344;16.928;2022-10-12T03:25:05;25.75;;;12.57;;
75272;SDS011;63869;52.344;16.928;2022-10-12T03:27:30;31.60;;;12.93;;
75272;SDS011;63869;52.344;16.928;2022-10-12T03:29:56;34.20;;;13.70;;
75272;SDS011;63869;52.344;16.928;2022-10-12T03:32:21;27.58;;;13.98;;
75272;SDS011;63869;52.344;16.928;2022-10-12T03:34:46;29.42;;;13.13;;
75272;SDS011;63869;52.344;16.928;2022-10-12T03:37:12;30.27;;;12.73;;
75272;SDS011;63869;52.344;16.928;2022-10-12T03:39:37;27.20;;;12.85;;
75272;SDS011;63869;52.344;16.928;2022-10-12T03:42:02;26.60;;;12.25;;
75272;SDS011;63869;52.344;16.928;2022-10-12T03:44:28;37.35;;;14.20;;
75272;SDS011;63869;52.344;16.928;2022-10-12T03:46:53;33.92;;;13.98;;
75272;SDS011;63869;52.344;16.928;2022-10-12T03:49:18;46.35;;;13.77;;
75272;SDS011;63869;52.344;16.928;2022-10-12T03:51:44;41.20;;;13.50;;
75272;SDS011;63869;52.344;16.928;2022-10-12T03:54:09;40.55;;;12.90;;
75272;SDS011;63869;52.344;16.928;2022-10-12T03:56:34;32.22;;;13.02;;
75272;SDS011;63869;52.344;16.928;2022-10-12T03:59:01;38.58;;;12.55;;
75272;SDS011;63869;52.344;16.928;2022-10-12T04:01:26;29.00;;;12.15;;
75272;SDS011;63869;52.344;16.928;2022-10-12T04:03:51;33.13;;;14.23;;
75272;SDS011;63869;52.344;16.928;2022-10-12T04:06:16;30.50;;;13.40;;
75272;SDS011;63869;52.344;16.928;2022-10-12T04:08:42;28.70;;;12.52;;
75272;SDS011;63869;52.344;16.928;2022-10-12T04:11:07;34.22;;;12.20;;
75272;SDS011;63869;52.344;16.928;2022-10-12T04:13:33;27.05;;;12.23;;
75272;SDS011;63869;52.344;16.928;2022-10-12T04:16:02;29.95;;;12.98;;
75272;SDS011;63869;52.344;16.928;2022-10-12T04:18:28;32.30;;;12.68;;
75272;SDS011;63869;52.344;16.928;2022-10-12T04:20:54;28.92;;;12.45;;
75272;SDS011;63869;52.344;16.928;2022-10-12T04:23:19;32.70;;;12.80;;
75272;SDS011;63869;52.344;16.928;2022-10-12T04:25:45;34.60;;;12.77;;
75272;SDS011;63869;52.344;16.928;2022-10-12T04:28:10;26.83;;;11.98;;
75272;SDS011;63869;52.344;16.928;2022-10-12T04:30:36;28.35;;;12.00;;
75272;SDS011;63869;52.344;16.928;2022-10-12T04:33:01;27.30;;;12.32;;
75272;SDS011;63869;52.344;16.928;2022-10-12T04:35:27;30.55;;;12.80;;
75272;SDS011;63869;52.344;16.928;2022-10-12T04:37:52;32.30;;;12.80;;
75272;SDS011;63869;52.344;16.928;2022-10-12T04:40:17;37.45;;;12.23;;
75272;SDS011;63869;52.344;16.928;2022-10-12T04:42:43;32.85;;;12.43;;
75272;SDS011;63869;52.344;16.928;2022-10-12T04:45:08;35.08;;;13.32;;
75272;SDS011;63869;52.344;16.928;2022-10-12T04:47:34;35.95;;;12.43;;
75272;SDS011;63869;52.344;16.928;2022-10-12T04:49:59;30.00;;;12.73;;
75272;SDS011;63869;52.344;16.928;2022-10-12T04:52:25;36.20;;;12.23;;
75272;SDS011;63869;52.344;16.928;2022-10-12T04:54:50;37.33;;;13.75;;
75272;SDS011;63869;52.344;16.928;2022-10-12T04:57:15;34.22;;;13.43;;
75272;SDS011;63869;52.344;16.928;2022-10-12T04:59:40;31.92;;;11.75;;
75272;SDS011;63869;52.344;16.928;2022-10-12T05:02:06;28.40;;;12.48;;
75272;SDS011;63869;52.344;16.928;2022-10-12T05:04:31;33.40;;;13.68;;
75272;SDS011;63869;52.344;16.928;2022-10-12T05:06:56;33.95;;;13.38;;
75272;SDS011;63869;52.344;16.928;2022-10-12T05:09:22;31.55;;;12.63;;
75272;SDS011;63869;52.344;16.928;2022-10-12T05:11:47;37.08;;;12.95;;
75272;SDS011;63869;52.344;16.928;2022-10-12T05:14:12;37.95;;;13.75;;
75272;SDS011;63869;52.344;16.928;2022-10-12T05:16:38;30.23;;;12.73;;
75272;SDS011;63869;52.344;16.928;2022-10-12T05:19:03;31.33;;;13.48;;
75272;SDS011;63869;52.344;16.928;2022-10-12T05:21:28;38.80;;;13.90;;
75272;SDS011;63869;52.344;16.928;2022-10-12T05:23:54;32.90;;;14.35;;
75272;SDS011;63869;52.344;16.928;2022-10-12T05:26:19;36.30;;;13.90;;
75272;SDS011;63869;52.344;16.928;2022-10-12T05:28:44;35.30;;;14.27;;
75272;SDS011;63869;52.344;16.928;2022-10-12T05:31:10;34.67;;;14.48;;
75272;SDS011;63869;52.344;16.928;2022-10-12T05:33:35;41.63;;;14.27;;
75272;SDS011;63869;52.344;16.928;2022-10-12T05:36:00;45.63;;;15.57;;
75272;SDS011;63869;52.344;16.928;2022-10-12T05:38:26;50.67;;;15.70;;
75272;SDS011;63869;52.344;16.928;2022-10-12T05:40:51;36.65;;;13.80;;
75272;SDS011;63869;52.344;16.928;2022-10-12T05:43:16;38.63;;;14.68;;
75272;SDS011;63869;52.344;16.928;2022-10-12T05:45:42;45.75;;;14.45;;
75272;SDS011;63869;52.344;16.928;2022-10-12T05:48:07;47.28;;;16.25;;
75272;SDS011;63869;52.344;16.928;2022-10-12T05:50:32;43.17;;;14.38;;
75272;SDS011;63869;52.344;16.928;2022-10-12T05:52:58;33.67;;;14.13;;
75272;SDS011;63869;52.344;16.928;2022-10-12T05:55:23;37.08;;;15.35;;
75272;SDS011;63869;52.344;16.928;2022-10-12T05:57:48;33.03;;;14.38;;
75272;SDS011;63869;52.344;16.928;2022-10-12T06:00:14;37.30;;;15.63;;
75272;SDS011;63869;52.344;16.928;2022-10-12T06:02:39;33.40;;;14.52;;
75272;SDS011;63869;52.344;16.928;2022-10-12T06:05:05;63.90;;;16.42;;
75272;SDS011;63869;52.344;16.928;2022-10-12T06:07:30;63.10;;;16.65;;
75272;SDS011;63869;52.344;16.928;2022-10-12T06:09:55;40.85;;;15.38;;
75272;SDS011;63869;52.344;16.928;2022-10-12T06:12:21;47.63;;;16.20;;
75272;SDS011;63869;52.344;16.928;2022-10-12T06:14:47;43.67;;;16.83;;
75272;SDS011;63869;52.344;16.928;2022-10-12T06:17:13;41.85;;;14.93;;
75272;SDS011;63869;52.344;16.928;2022-10-12T06:19:38;67.13;;;19.17;;
75272;SDS011;63869;52.344;16.928;2022-10-12T06:22:04;52.33;;;18.08;;
75272;SDS011;63869;52.344;16.928;2022-10-12T06:24:29;108.15;;;30.70;;
75272;SDS011;63869;52.344;16.928;2022-10-12T06:26:54;88.22;;;25.55;;
75272;SDS011;63869;52.344;16.928;2022-10-12T06:29:20;79.70;;;20.70;;
75272;SDS011;63869;52.344;16.928;2022-10-12T06:31:48;79.68;;;25.08;;
75272;SDS011;63869;52.344;16.928;2022-10-12T06:34:14;77.15;;;25.45;;
75272;SDS011;63869;52.344;16.928;2022-10-12T06:36:39;71.18;;;25.45;;
75272;SDS011;63869;52.344;16.928;2022-10-12T06:39:04;141.23;;;36.90;;
75272;SDS011;63869;52.344;16.928;2022-10-12T06:41:30;96.30;;;26.70;;
75272;SDS011;63869;52.344;16.928;2022-10-12T06:43:55;73.80;;;24.13;;
75272;SDS011;63869;52.344;16.928;2022-10-12T06:46:20;69.15;;;22.25;;
75272;SDS011;63869;52.344;16.928;2022-10-12T06:48:46;52.88;;;19.42;;
75272;SDS011;63869;52.344;16.928;2022-10-12T06:51:11;48.08;;;18.35;;
75272;SDS011;63869;52.344;16.928;2022-10-12T06:53:36;42.13;;;18.38;;
75272;SDS011;63869;52.344;16.928;2022-10-12T06:56:05;45.10;;;18.92;;
75272;SDS011;63869;52.344;16.928;2022-10-12T06:58:32;42.78;;;19.05;;
75272;SDS011;63869;52.344;16.928;2022-10-12T07:00:57;46.38;;;18.92;;
75272;SDS011;63869;52.344;16.928;2022-10-12T07:03:26;45.70;;;19.05;;
75272;SDS011;63869;52.344;16.928;2022-10-12T07:05:51;44.33;;;19.23;;
75272;SDS011;63869;52.344;16.928;2022-10-12T07:08:16;46.80;;;18.33;;
75272;SDS011;63869;52.344;16.928;2022-10-12T07:10:41;45.17;;;17.58;;
75272;SDS011;63869;52.344;16.928;2022-10-12T07:13:08;38.70;;;17.80;;
75272;SDS011;63869;52.344;16.928;2022-10-12T07:15:33;37.03;;;17.25;;
75272;SDS011;63869;52.344;16.928;2022-10-12T07:17:59;36.47;;;16.58;;
75272;SDS011;63869;52.344;16.928;2022-10-12T07:20:25;60.50;;;18.35;;
75272;SDS011;63869;52.344;16.928;2022-10-12T07:22:51;42.25;;;17.88;;
75272;SDS011;63869;52.344;16.928;2022-10-12T07:25:17;40.60;;;17.00;;
75272;SDS011;63869;52.344;16.928;2022-10-12T07:27:45;31.88;;;16.60;;
75272;SDS011;63869;52.344;16.928;2022-10-12T07:30:11;38.85;;;17.27;;
75272;SDS011;63869;52.344;16.928;2022-10-12T07:32:37;42.95;;;18.02;;
75272;SDS011;63869;52.344;16.928;2022-10-12T07:35:02;39.08;;;18.40;;
75272;SDS011;63869;52.344;16.928;2022-10-12T07:37:28;44.08;;;20.80;;
75272;SDS011;63869;52.344;16.928;2022-10-12T07:39:53;54.70;;;21.52;;
75272;SDS011;63869;52.344;16.928;2022-10-12T07:42:21;46.10;;;21.02;;
75272;SDS011;63869;52.344;16.928;2022-10-12T07:44:46;59.55;;;21.00;;
75272;SDS011;63869;52.344;16.928;2022-10-12T07:47:12;37.15;;;18.17;;
75272;SDS011;63869;52.344;16.928;2022-10-12T07:49:37;36.72;;;17.40;;
75272;SDS011;63869;52.344;16.928;2022-10-12T07:52:02;31.65;;;15.60;;
75272;SDS011;63869;52.344;16.928;2022-10-12T07:54:28;38.10;;;18.67;;
75272;SDS011;63869;52.344;16.928;2022-10-12T07:56:53;36.80;;;19.30;;
75272;SDS011;63869;52.344;16.928;2022-10-12T07:59:19;33.92;;;17.00;;
75272;SDS011;63869;52.344;16.928;2022-10-12T08:01:44;37.67;;;16.90;;
75272;SDS011;63869;52.344;16.928;2022-10-12T08:04:09;48.70;;;18.17;;
75272;SDS011;63869;52.344;16.928;2022-10-12T08:06:34;24.42;;;11.55;;
75272;SDS011;63869;52.344;16.928;2022-10-12T08:09:00;39.90;;;12.57;;
75272;SDS011;63869;52.344;16.928;2022-10-12T08:11:27;28.75;;;14.07;;
75272;SDS011;63869;52.344;16.928;2022-10-12T08:13:52;34.03;;;12.68;;
75272;SDS011;63869;52.344;16.928;2022-10-12T08:16:18;34.90;;;12.73;;
75272;SDS011;63869;52.344;16.928;2022-10-12T08:18:45;38.05;;;13.63;;
75272;SDS011;63869;52.344;16.928;2022-10-12T08:21:11;38.28;;;15.35;;
75272;SDS011;63869;52.344;16.928;2022-10-12T08:23:38;34.65;;;13.43;;
75272;SDS011;63869;52.344;16.928;2022-10-12T08:26:04;31.45;;;12.32;;
75272;SDS011;63869;52.344;16.928;2022-10-12T08:28:30;25.02;;;9.90;;
75272;SDS011;63869;52.344;16.928;2022-10-12T08:30:55;26.08;;;9.10;;
75272;SDS011;63869;52.344;16.928;2022-10-12T08:33:21;37.03;;;8.68;;
75272;SDS011;63869;52.344;16.928;2022-10-12T08:35:47;17.80;;;6.85;;
75272;SDS011;63869;52.344;16.928;2022-10-12T08:38:13;88.28;;;9.73;;
75272;SDS011;63869;52.344;16.928;2022-10-12T08:43:32;17.52;;;6.80;;
75272;SDS011;63869;52.344;16.928;2022-10-12T08:45:59;18.27;;;7.78;;
75272;SDS011;63869;52.344;16.928;2022-10-12T08:51:12;12.55;;;4.57;;
75272;SDS011;63869;52.344;16.928;2022-10-12T08:53:46;11.38;;;4.65;;
75272;SDS011;63869;52.344;16.928;2022-10-12T08:56:21;14.07;;;5.70;;
75272;SDS011;63869;52.344;16.928;2022-10-12T08:58:47;13.55;;;4.50;;
75272;SDS011;63869;52.344;16.928;2022-10-12T09:07:22;10.77;;;4.07;;
75272;SDS011;63869;52.344;16.928;2022-10-12T09:15:49;9.75;;;2.20;;
75272;SDS011;63869;52.344;16.928;2022-10-12T09:18:30;10.07;;;2.53;;
75272;SDS011;63869;52.344;16.928;2022-10-12T09:21:01;8.15;;;3.08;;
75272;SDS011;63869;52.344;16.928;2022-10-12T09:23:31;14.73;;;3.70;;
75272;SDS011;63869;52.344;16.928;2022-10-12T09:26:14;7.70;;;3.60;;
75272;SDS011;63869;52.344;16.928;2022-10-12T09:28:54;9.30;;;3.13;;
75272;SDS011;63869;52.344;16.928;2022-10-12T09:34:03;28.52;;;4.57;;
75272;SDS011;63869;52.344;16.928;2022-10-12T09:36:32;8.80;;;3.00;;
75272;SDS011;63869;52.344;16.928;2022-10-12T09:39:01;6.68;;;2.58;;
75272;SDS011;63869;52.344;16.928;2022-10-12T09:41:32;6.32;;;1.67;;
75272;SDS011;63869;52.344;16.928;2022-10-12T09:44:00;8.70;;;2.33;;
75272;SDS011;63869;52.344;16.928;2022-10-12T09:49:13;9.98;;;3.10;;
75272;SDS011;63869;52.344;16.928;2022-10-12T09:51:38;8.75;;;2.75;;
75272;SDS011;63869;52.344;16.928;2022-10-12T09:54:05;9.60;;;2.20;;
75272;SDS011;63869;52.344;16.928;2022-10-12T10:04:35;16.20;;;5.28;;
75272;SDS011;63869;52.344;16.928;2022-10-12T10:07:19;14.10;;;4.63;;
75272;SDS011;63869;52.344;16.928;2022-10-12T10:09:48;12.93;;;4.30;;
75272;SDS011;63869;52.344;16.928;2022-10-12T10:12:27;12.35;;;4.40;;
75272;SDS011;63869;52.344;16.928;2022-10-12T10:14:53;12.60;;;4.03;;
75272;SDS011;63869;52.344;16.928;2022-10-12T10:17:30;39.72;;;6.80;;
75272;SDS011;63869;52.344;16.928;2022-10-12T10:19:57;13.88;;;4.72;;
75272;SDS011;63869;52.344;16.928;2022-10-12T10:22:26;14.98;;;5.10;;
75272;SDS011;63869;52.344;16.928;2022-10-12T10:24:54;15.82;;;4.80;;
75272;SDS011;63869;52.344;16.928;2022-10-12T10:35:05;12.45;;;4.10;;
75272;SDS011;63869;52.344;16.928;2022-10-12T10:37:44;13.38;;;4.15;;
75272;SDS011;63869;52.344;16.928;2022-10-12T10:40:16;17.08;;;4.25;;
75272;SDS011;63869;52.344;16.928;2022-10-12T10:42:48;12.18;;;4.20;;
75272;SDS011;63869;52.344;16.928;2022-10-12T10:45:24;13.45;;;4.03;;
75272;SDS011;63869;52.344;16.928;2022-10-12T10:47:52;11.23;;;3.55;;
75272;SDS011;63869;52.344;16.928;2022-10-12T10:50:31;9.50;;;3.67;;
75272;SDS011;63869;52.344;16.928;2022-10-12T10:52:59;12.23;;;4.20;;
75272;SDS011;63869;52.344;16.928;2022-10-12T10:58:14;11.60;;;3.47;;
75272;SDS011;63869;52.344;16.928;2022-10-12T11:00:46;11.38;;;4.65;;
75272;SDS011;63869;52.344;16.928;2022-10-12T11:03:19;8.43;;;2.92;;
75272;SDS011;63869;52.344;16.928;2022-10-12T11:06:02;9.43;;;3.00;;
75272;SDS011;63869;52.344;16.928;2022-10-12T11:08:38;14.43;;;3.20;;
75272;SDS011;63869;52.344;16.928;2022-10-12T11:11:10;56.03;;;5.05;;
75272;SDS011;63869;52.344;16.928;2022-10-12T11:13:47;11.05;;;2.70;;
75272;SDS011;63869;52.344;16.928;2022-10-12T11:16:29;5.55;;;2.47;;
75272;SDS011;63869;52.344;16.928;2022-10-12T11:19:47;7.57;;;2.63;;
75272;SDS011;63869;52.344;16.928;2022-10-12T11:22:27;5.95;;;2.40;;
75272;SDS011;63869;52.344;16.928;2022-10-12T11:27:36;9.05;;;2.50;;
75272;SDS011;63869;52.344;16.928;2022-10-12T11:30:06;6.90;;;2.58;;
75272;SDS011;63869;52.344;16.928;2022-10-12T11:32:49;8.85;;;2.40;;
75272;SDS011;63869;52.344;16.928;2022-10-12T11:35:27;4.90;;;2.17;;
75272;SDS011;63869;52.344;16.928;2022-10-12T11:37:59;7.75;;;2.38;;
75272;SDS011;63869;52.344;16.928;2022-10-12T11:40:29;7.95;;;2.38;;
75272;SDS011;63869;52.344;16.928;2022-10-12T11:42:57;6.68;;;2.33;;
75272;SDS011;63869;52.344;16.928;2022-10-12T11:45:28;48.38;;;5.32;;
75272;SDS011;63869;52.344;16.928;2022-10-12T11:48:01;8.63;;;2.72;;
75272;SDS011;63869;52.344;16.928;2022-10-12T11:50:36;7.80;;;2.58;;
75272;SDS011;63869;52.344;16.928;2022-10-12T11:56:15;7.57;;;2.55;;
75272;SDS011;63869;52.344;16.928;2022-10-12T11:58:46;8.65;;;2.65;;
75272;SDS011;63869;52.344;16.928;2022-10-12T12:04:06;13.73;;;3.13;;
75272;SDS011;63869;52.344;16.928;2022-10-12T12:06:46;6.78;;;2.13;;
75272;SDS011;63869;52.344;16.928;2022-10-12T12:09:19;5.32;;;1.80;;
75272;SDS011;63869;52.344;16.928;2022-10-12T12:14:57;80.78;;;6.45;;
75272;SDS011;63869;52.344;16.928;2022-10-12T12:17:25;21.95;;;2.60;;
75272;SDS011;63869;52.344;16.928;2022-10-12T12:19:53;9.15;;;3.33;;
75272;SDS011;63869;52.344;16.928;2022-10-12T12:22:29;5.43;;;2.15;;
75272;SDS011;63869;52.344;16.928;2022-10-12T12:30:04;69.35;;;5.95;;
75272;SDS011;63869;52.344;16.928;2022-10-12T12:32:53;21.40;;;3.40;;
75272;SDS011;63869;52.344;16.928;2022-10-12T12:35:24;7.43;;;3.17;;
75272;SDS011;63869;52.344;16.928;2022-10-12T12:40:30;6.38;;;2.40;;
75272;SDS011;63869;52.344;16.928;2022-10-12T12:45:55;7.82;;;1.80;;
75272;SDS011;63869;52.344;16.928;2022-10-12T12:51:05;5.57;;;2.00;;
75272;SDS011;63869;52.344;16.928;2022-10-12T12:53:33;3.13;;;1.83;;
75272;SDS011;63869;52.344;16.928;2022-10-12T12:56:04;10.93;;;2.28;;
75272;SDS011;63869;52.344;16.928;2022-10-12T13:01:40;21.75;;;3.00;;
75272;SDS011;63869;52.344;16.928;2022-10-12T13:15:42;7.53;;;1.90;;
75272;SDS011;63869;52.344;16.928;2022-10-12T13:20:48;22.58;;;8.25;;
75272;SDS011;63869;52.344;16.928;2022-10-12T13:23:23;19.60;;;8.40;;
75272;SDS011;63869;52.344;16.928;2022-10-12T13:25:56;25.15;;;12.68;;
75272;SDS011;63869;52.344;16.928;2022-10-12T13:28:27;29.95;;;9.50;;
75272;SDS011;63869;52.344;16.928;2022-10-12T13:30:59;22.50;;;4.47;;
75272;SDS011;63869;52.344;16.928;2022-10-12T13:33:29;15.00;;;3.95;;
75272;SDS011;63869;52.344;16.928;2022-10-12T13:36:00;58.08;;;5.80;;
75272;SDS011;63869;52.344;16.928;2022-10-12T13:38:29;14.18;;;2.97;;
75272;SDS011;63869;52.344;16.928;2022-10-12T13:41:07;16.40;;;2.85;;
75272;SDS011;63869;52.344;16.928;2022-10-12T13:43:43;7.53;;;2.00;;
75272;SDS011;63869;52.344;16.928;2022-10-12T13:49:02;6.30;;;2.38;;
75272;SDS011;63869;52.344;16.928;2022-10-12T13:51:28;25.20;;;3.75;;
75272;SDS011;63869;52.344;16.928;2022-10-12T13:53:55;11.25;;;2.60;;
75272;SDS011;63869;52.344;16.928;2022-10-12T13:56:22;10.80;;;2.65;;
75272;SDS011;63869;52.344;16.928;2022-10-12T13:58:50;7.97;;;2.20;;
75272;SDS011;63869;52.344;16.928;2022-10-12T14:01:21;6.88;;;2.20;;
75272;SDS011;63869;52.344;16.928;2022-10-12T14:03:46;4.93;;;1.92;;
75272;SDS011;63869;52.344;16.928;2022-10-12T14:09:12;8.73;;;2.03;;
75272;SDS011;63869;52.344;16.928;2022-10-12T14:11:41;10.13;;;2.03;;
75272;SDS011;63869;52.344;16.928;2022-10-12T14:14:50;9.38;;;2.67;;
75272;SDS011;63869;52.344;16.928;2022-10-12T14:16:58;5.78;;;1.90;;
75272;SDS011;63869;52.344;16.928;2022-10-12T14:19:31;8.82;;;2.33;;
75272;SDS011;63869;52.344;16.928;2022-10-12T14:21:58;5.10;;;1.90;;
75272;SDS011;63869;52.344;16.928;2022-10-12T14:24:25;27.00;;;2.90;;
75272;SDS011;63869;52.344;16.928;2022-10-12T14:26:51;44.17;;;3.70;;
75272;SDS011;63869;52.344;16.928;2022-10-12T14:32:04;9.77;;;2.92;;
75272;SDS011;63869;52.344;16.928;2022-10-12T14:39:37;6.85;;;2.70;;
75272;SDS011;63869;52.344;16.928;2022-10-12T14:42:03;4.63;;;2.22;;
75272;SDS011;63869;52.344;16.928;2022-10-12T14:44:43;4.55;;;2.38;;
75272;SDS011;63869;52.344;16.928;2022-10-12T14:47:16;9.88;;;3.38;;
75272;SDS011;63869;52.344;16.928;2022-10-12T14:49:46;14.63;;;6.32;;
75272;SDS011;63869;52.344;16.928;2022-10-12T14:52:26;9.80;;;4.90;;
75272;SDS011;63869;52.344;16.928;2022-10-12T14:55:00;11.38;;;5.68;;
75272;SDS011;63869;52.344;16.928;2022-10-12T14:57:27;14.20;;;8.80;;
75272;SDS011;63869;52.344;16.928;2022-10-12T14:59:54;14.77;;;7.05;;
75272;SDS011;63869;52.344;16.928;2022-10-12T15:02:29;8.68;;;5.65;;
75272;SDS011;63869;52.344;16.928;2022-10-12T15:04:55;11.32;;;4.25;;
75272;SDS011;63869;52.344;16.928;2022-10-12T15:07:25;9.68;;;3.63;;
75272;SDS011;63869;52.344;16.928;2022-10-12T15:09:53;13.87;;;3.63;;
75272;SDS011;63869;52.344;16.928;2022-10-12T15:12:20;25.05;;;3.97;;
75272;SDS011;63869;52.344;16.928;2022-10-12T15:14:47;7.63;;;2.67;;
75272;SDS011;63869;52.344;16.928;2022-10-12T15:17:17;16.27;;;2.95;;
75272;SDS011;63869;52.344;16.928;2022-10-12T15:19:44;17.48;;;3.25;;
75272;SDS011;63869;52.344;16.928;2022-10-12T15:22:15;10.98;;;3.08;;
75272;SDS011;63869;52.344;16.928;2022-10-12T15:24:45;16.10;;;2.65;;
75272;SDS011;63869;52.344;16.928;2022-10-12T15:27:10;7.97;;;2.50;;
75272;SDS011;63869;52.344;16.928;2022-10-12T15:29:36;10.38;;;2.42;;
75272;SDS011;63869;52.344;16.928;2022-10-12T15:32:01;7.45;;;2.92;;
75272;SDS011;63869;52.344;16.928;2022-10-12T15:34:27;7.32;;;2.70;;
75272;SDS011;63869;52.344;16.928;2022-10-12T15:36:52;10.25;;;3.58;;
75272;SDS011;63869;52.344;16.928;2022-10-12T15:39:18;17.63;;;4.55;;
75272;SDS011;63869;52.344;16.928;2022-10-12T15:41:43;7.72;;;2.88;;
75272;SDS011;63869;52.344;16.928;2022-10-12T15:44:12;11.80;;;2.67;;
75272;SDS011;63869;52.344;16.928;2022-10-12T15:46:39;6.45;;;2.38;;
75272;SDS011;63869;52.344;16.928;2022-10-12T15:49:05;13.10;;;3.22;;
75272;SDS011;63869;52.344;16.928;2022-10-12T15:51:31;15.35;;;3.35;;
75272;SDS011;63869;52.344;16.928;2022-10-12T15:53:59;11.77;;;3.47;;
75272;SDS011;63869;52.344;16.928;2022-10-12T15:56:24;28.30;;;4.05;;
75272;SDS011;63869;52.344;16.928;2022-10-12T15:58:50;66.78;;;7.53;;
75272;SDS011;63869;52.344;16.928;2022-10-12T16:01:16;38.97;;;6.43;;
75272;SDS011;63869;52.344;16.928;2022-10-12T16:03:43;41.13;;;6.60;;
75272;SDS011;63869;52.344;16.928;2022-10-12T16:06:10;41.55;;;4.88;;
75272;SDS011;63869;52.344;16.928;2022-10-12T16:08:35;29.63;;;5.38;;
75272;SDS011;63869;52.344;16.928;2022-10-12T16:11:02;35.25;;;5.22;;
75272;SDS011;63869;52.344;16.928;2022-10-12T16:13:32;43.70;;;5.97;;
75272;SDS011;63869;52.344;16.928;2022-10-12T16:15:57;48.45;;;6.90;;
75272;SDS011;63869;52.344;16.928;2022-10-12T16:18:23;37.28;;;5.43;;
75272;SDS011;63869;52.344;16.928;2022-10-12T16:20:49;62.88;;;7.18;;
75272;SDS011;63869;52.344;16.928;2022-10-12T16:23:19;45.10;;;6.13;;